This is the latest recevied weather packets stored in our database for station/object KM4CNW. If no packets are shown the sender has not sent any weather packets the latest 10 day(s).
| Time | Temp. | Humidity | Pressure | Rain* | Wind** | Luminosity | Snow |
|---|---|---|---|---|---|---|---|
| 1777689741 | 12.22° C | 77% | 1007.2 hPa | 0 mm | - | 0 W/m² | - |
| 1777689439 | 12.22° C | 77% | 1007.4 hPa | 0 mm | - | 0 W/m² | - |
| 1777688834 | 12.22° C | 77% | 1007.5 hPa | 0 mm | - | 0 W/m² | - |
| 1777688530 | 12.22° C | 77% | 1007.4 hPa | 0 mm | - | 0 W/m² | - |
| 1777670343 | 18.33° C | 49% | 1006.6 hPa | 0 mm | - | 446 W/m² | - |
| 1777669131 | 18.89° C | 46% | 1006.5 hPa | 0 mm | - | 539 W/m² | - |
| 1777668828 | 18.89° C | 48% | 1006.4 hPa | 0 mm | - | 605 W/m² | - |
| 1777668221 | 18.89° C | 48% | 1006.3 hPa | 0 mm | - | 631 W/m² | - |
| 1777667615 | 18.33° C | 48% | 1006.4 hPa | 0 mm | - | 470 W/m² | - |
| 1777667009 | 17.78° C | 47% | 1006.6 hPa | 0 mm | - | 462 W/m² | - |
| 1777666099 | 18.33° C | 47% | 1006.9 hPa | 0 mm | - | 421 W/m² | - |
| 1777665796 | 18.33° C | 46% | 1006.9 hPa | 0 mm | - | 512 W/m² | - |
| 1777665189 | 17.78° C | 48% | 1007.4 hPa | 0 mm | - | 413 W/m² | - |
| 1777664278 | 18.33° C | 45% | 1007.8 hPa | 0 mm | - | 464 W/m² | - |
| 1777663977 | 18.89° C | 46% | 1007.8 hPa | 0 mm | - | 450 W/m² | - |
| 1777663674 | 18.89° C | 47% | 1007.7 hPa | 0 mm | - | 434 W/m² | - |
| 1777663370 | 18.33° C | 48% | 1007.9 hPa | 0 mm | - | 371 W/m² | - |
| 1777663068 | 18.33° C | 46% | 1008.1 hPa | 0 mm | - | 317 W/m² | - |
| 1777662765 | 18.33° C | 45% | 1007.9 hPa | 0 mm | - | 483 W/m² | - |
| 1777660941 | 20° C | 42% | 1008 hPa | 0 mm | - | 889 W/m² | - |
| 1777660637 | 20° C | 40% | 1008 hPa | 0 mm | - | 511 W/m² | - |
| 1777660334 | 19.44° C | 43% | 1008.1 hPa | 0 mm | - | 649 W/m² | - |
| 1777660030 | 18.89° C | 42% | 1008.1 hPa | 0 mm | - | 830 W/m² | - |
| 1777659424 | 18.89° C | 43% | 1008.3 hPa | 0 mm | - | 344 W/m² | - |
| 1777659121 | 20° C | 40% | 1008.3 hPa | 0 mm | - | 329 W/m² | - |
* Rain latest hour (hover to see other rain measurements)
** Current wind speed in m/s (hover to see current wind gust speed)